Alpine, Texas
Current Conditions -  °F | °C
As of 9:55 PM on Wednesday 17 Dec 2014 (Local Time) from KE38 Reporting Station
Clear Clear  
Wind Chill:   Ceiling: Unl
Heat Index:   Visibility: 10mi
Dew Point: -3°   Wind: 8mph
Humidity: 54%   Direction: 220°SW
Pressure: 30.18"   Gusts: NA
Location:  30.36°N, 103.66°W
Report Text: KE38 180355Z AUTO 22007KT 10SM CLR 06/M03 A3018 RMK AO2 T00611027
Loading
Personal Weather Stations






























Interactive Weather Map New forecast layout! Learn more

10-Day Weather Forecast

Advertisements
Track Severe Weather on mobile